Flight Track Log - Related Links

Times and Time Zones

All times are in EDT time to prevent confusion due to time zone crossing. See the UAL256 flight status page for this flight to view local times or setup timezone preferences in your user account.

Time Position Orientation Groundspeed Altitude Reporting Facility
EDT Latitude Longitude Course Direction KTS MPH feet Rate Location/Type
Thu 09:19:59 PM 39.8767 -104.5856 83° East 189 217 6,600  Level Denver Center
Thu 09:20:52 PM 39.9000 -104.5000 70° East 236 272 9,400 2,516 Climbing Denver TRACON
Thu 09:21:00 PM 39.9143 -104.3641 78° East  Level FlightAware Approximate
Thu 09:22:00 PM 39.9400 -104.2102 78° East  Level FlightAware Approximate
Thu 09:23:00 PM 39.9640 -104.0579 66° East  Level FlightAware Approximate
Thu 09:23:05 PM 39.9464 -104.2697 75° East 327 376 14,400  Level Denver Center
Thu 09:24:00 PM 39.9876 -103.9035 79° East  Level FlightAware Approximate
Thu 09:24:07 PM 39.9350 -104.1447 97° East 346 398 17,300  Level Denver Center
Thu 09:25:00 PM 40.0179 -103.7539 83° East  Level FlightAware Approximate
Thu 09:25:09 PM 39.9631 -104.0003 76° East 397 457 18,600  Level Denver Center
Thu 09:26:11 PM 39.9992 -103.8550 72° East 425 489 20,600 1,984 Climbing Denver Center
Thu 09:27:13 PM 40.0311 -103.7053 74° East 430 495 22,700 1,935 Climbing Denver Center
Thu 09:28:15 PM 40.0581 -103.5456 78° East 446 513 24,600 1,984 Climbing Denver Center
Thu 09:29:17 PM 40.0844 -103.3786 78° East 464 534 26,800 1,887 Climbing Denver Center
Thu 09:30:19 PM 40.1158 -103.1886 78° East 456 525 28,500 1,548 Climbing Denver Center
Thu 09:31:21 PM 40.1428 -103.0194 78° East 466 536 30,000 1,500 Climbing Denver Center
Thu 09:32:23 PM 40.1689 -102.8467 79° East 479 551 31,600 1,258 Climbing Denver Center
Thu 09:33:25 PM 40.1950 -102.6789 78° East 485 558 32,600 677 Climbing Denver Center
Thu 09:34:27 PM 40.2261 -102.4828 78° East 494 568 33,000 485 Climbing Denver Center
Thu 09:35:41 PM 40.2514 -102.3142 79° East 494 568 33,700 1,059 Climbing Denver Center
Thu 09:36:43 PM 40.2850 -102.0872 79° East 496 571 35,400 1,210 Climbing Denver Center
Thu 09:37:45 PM 40.3072 -101.9467 78° East 496 571 36,200 774 Climbing Denver Center
Thu 09:38:47 PM 40.3403 -101.7189 79° East 498 573 37,000 387 Climbing Denver Center
Thu 09:39:49 PM 40.3656 -101.5481 79° East 499 574 37,000  Level Denver Center
Thu 09:40:51 PM 40.3947 -101.3483 79° East 501 577 37,000  Level Denver Center
Thu 09:41:53 PM 40.4181 -101.1761 80° East 504 580 37,000  Level Denver Center
Thu 09:42:55 PM 40.4472 -100.9789 79° East 498 573 37,000  Level Denver Center
Thu 09:43:57 PM 40.4939 -100.8164 69° East 501 577 37,000  Level Denver Center
Thu 09:44:59 PM 40.5600 -100.6383 64° Northeast 493 567 37,000  Level Denver Center
Thu 09:46:01 PM 40.6175 -100.4836 64° Northeast 495 570 37,000  Level Denver Center
Thu 09:47:04 PM 40.6844 -100.3042 64° Northeast 495 570 37,000  Level Denver Center
Thu 09:48:06 PM 40.7411 -100.1475 64° Northeast 497 572 37,000  Level Denver Center
Thu 09:49:08 PM 40.8078 -99.9647 64° Northeast 497 572 37,000  Level Denver Center
Thu 09:50:10 PM 40.8711 -99.7903 64° Northeast 499 574 37,000  Level Denver Center
Thu 09:51:11 PM 40.9183 -99.6597 64° Northeast 495 570 37,000  Level Denver Center
Thu 09:52:14 PM 40.9897 -99.4600 65° Northeast 498 573 37,000  Level Denver Center
Thu 09:53:16 PM 41.0483 -99.2950 65° Northeast 495 570 37,000  Level Denver Center
Thu 09:54:18 PM 41.1064 -99.1297 65° Northeast 494 568 37,000  Level Denver Center
Thu 09:55:20 PM 41.1753 -98.9336 65° Northeast 507 583 37,000  Level Denver Center
Thu 09:56:02 PM 41.2100 -98.8356 65° Northeast 510 587 37,000  Level Minneapolis Center
Thu 09:57:04 PM 41.2808 -98.6325 65° Northeast 506 582 37,000 -49 Level Minneapolis Center
Thu 09:58:05 PM 41.3372 -98.4681 65° Northeast 496 571 36,900  Descending Minneapolis Center
Thu 09:59:07 PM 41.3919 -98.3064 66° East 495 570 37,000 48 Climbing Minneapolis Center
Thu 10:00:09 PM 41.4475 -98.1381 66° East 495 570 37,000 49 Level Minneapolis Center
Thu 10:01:10 PM 41.5047 -97.9614 67° East 501 577 37,100  Climbing Minneapolis Center
Thu 10:02:12 PM 41.5439 -97.7814 74° East 504 580 37,000  Descending Minneapolis Center
Thu 10:03:14 PM 41.5706 -97.5947 79° East 511 588 37,100  Climbing Minneapolis Center
Thu 10:04:15 PM 41.5986 -97.4069 79° East 514 592 37,000 -49 Descending Minneapolis Center
Thu 10:05:17 PM 41.6325 -97.1814 79° East 515 593 37,000  Level Minneapolis Center
Thu 10:06:19 PM 41.6614 -96.9947 78° East 513 590 37,000  Level Minneapolis Center
Thu 10:07:20 PM 41.6878 -96.8078 79° East 512 589 37,000  Level Minneapolis Center
Thu 10:08:22 PM 41.7147 -96.6200 79° East 511 588 37,000  Level Minneapolis Center
Thu 10:09:23 PM 41.7417 -96.4322 79° East 512 589 37,000  Level Minneapolis Center
Thu 10:10:25 PM 41.7686 -96.2447 79° East 509 586 37,000  Level Minneapolis Center
Thu 10:11:27 PM 41.7944 -96.0556 80° East 511 588 37,000  Level Minneapolis Center
Thu 10:12:28 PM 41.8200 -95.8664 80° East 512 589 37,000  Level Minneapolis Center
Thu 10:13:30 PM 41.8464 -95.6781 79° East 511 588 37,000  Level Minneapolis Center
Thu 10:14:31 PM 41.8706 -95.4875 80° East 514 592 37,000  Level Minneapolis Center
Thu 10:15:33 PM 41.8956 -95.2983 80° East 514 592 37,000  Level Minneapolis Center
Thu 10:16:34 PM 41.9256 -95.0725 80° East 512 589 37,000  Level Minneapolis Center
Thu 10:17:36 PM 41.9492 -94.8819 80° East 514 592 37,000  Level Minneapolis Center
Thu 10:18:39 PM 41.9739 -94.6906 80° East 517 595 37,000  Level Minneapolis Center
Thu 10:19:41 PM 41.9961 -94.4997 81° East 518 596 37,000  Level Minneapolis Center
Thu 10:20:43 PM 42.0211 -94.3067 80° East 522 601 37,000  Level Minneapolis Center
Thu 10:21:44 PM 42.0439 -94.1147 81° East 521 600 37,000  Level Minneapolis Center
Thu 10:22:46 PM 42.0672 -93.9239 81° East 519 597 37,000  Level Minneapolis Center
Thu 10:23:47 PM 42.0933 -93.7047 81° East 520 598 37,000  Level Minneapolis Center
Thu 10:24:49 PM 42.1181 -93.5153 80° East 519 597 37,000  Level Minneapolis Center
Thu 10:25:51 PM 42.1378 -93.3244 82° East 520 598 37,000  Level Minneapolis Center
Thu 10:26:52 PM 42.1589 -93.1333 81° East 520 598 37,000  Level Minneapolis Center
Thu 10:27:54 PM 42.1786 -92.9431 82° East 520 598 37,000  Level Minneapolis Center
Thu 10:28:55 PM 42.2039 -92.7167 81° East 516 594 37,000  Level Minneapolis Center
Thu 10:29:57 PM 42.2242 -92.5283 82° East 514 592 37,000  Level Minneapolis Center
Thu 10:30:59 PM 42.2442 -92.3392 82° East 515 593 37,000  Level Minneapolis Center
Thu 10:32:00 PM 42.2639 -92.1514 82° East 514 592 37,000  Level Minneapolis Center
Thu 10:32:49 PM 42.2789 -91.9997 82° East 512 589 37,000  Level Chicago Center
Thu 10:33:50 PM 42.2978 -91.8136 82° East 508 585 37,000  Level Chicago Center
Thu 10:34:52 PM 42.3192 -91.5886 83° East 512 589 37,000  Level Chicago Center
Thu 10:35:53 PM 42.3378 -91.4008 82° East 513 590 37,000  Level Chicago Center
Thu 10:36:54 PM 42.3550 -91.2122 83° East 515 593 37,000  Level Chicago Center
Thu 10:37:56 PM 42.3733 -91.0206 83° East 520 598 37,000 -390 Level Chicago Center
Thu 10:38:57 PM 42.3914 -90.8181 83° East 520 598 36,200 -836 Descending Chicago Center
Thu 10:39:58 PM 42.4081 -90.6389 83° East 518 596 35,300 -1,659 Descending Chicago Center
Thu 10:41:00 PM 42.4311 -90.4125 82° East 513 590 32,800 -2,488 Descending Chicago Center
Thu 10:42:01 PM 42.4506 -90.2244 82° East 510 587 30,200 -2,705 Descending Chicago Center
Thu 10:43:02 PM 42.4689 -90.0389 82° East 503 579 27,300 -2,195 Descending Chicago Center
Thu 10:44:04 PM 42.4719 -89.8414 89° East 494 568 25,700 -1,268 Descending Chicago Center
Thu 10:45:05 PM 42.4589 -89.6611 96° East 484 557 24,700 -1,574 Descending Chicago Center
Thu 10:46:06 PM 42.4467 -89.4819 95° East 480 552 22,500 -2,311 Descending Chicago Center
Thu 10:47:07 PM 42.4350 -89.3094 95° East 466 536 20,000 -2,262 Descending Chicago Center
Thu 10:48:08 PM 42.4228 -89.1447 96° East 445 512 17,900 -2,146 Descending Chicago Center
Thu 10:49:10 PM 42.4114 -88.9867 96° East 427 491 15,600 -2,488 Descending Chicago Center
Thu 10:50:11 PM 42.3981 -88.8097 96° East 409 471 12,800 -2,508 Descending Chicago Center
Thu 10:51:12 PM 42.3875 -88.6617 95° East 398 458 10,500 -1,377 Descending Chicago Center
Thu 10:52:13 PM 42.3761 -88.5211 96° East 381 438 10,000 -246 Descending Chicago Center
Thu 10:53:14 PM 42.3258 -88.4228 125° Southeast 373 429 10,000  Level Chicago Center
Thu 10:54:15 PM 42.2408 -88.2936 132° Southeast 383 441 10,000  Level Chicago Center
Thu 10:55:16 PM 42.1717 -88.1861 131° Southeast 381 438 10,000 -244 Level Chicago Center
Thu 10:56:18 PM 42.1108 -88.0919 131° Southeast 340 391 9,500 -824 Descending Chicago Center
Thu 10:56:58 PM 42.0833 -88.0167 116° Southeast 309 356 8,600 -1,380 Descending Chicago TRACON
Thu 10:57:58 PM 42.0667 -87.9167 103° East 306 352 7,200 -750 Descending Chicago TRACON
Thu 10:58:58 PM 42.0667 -87.8167 90° East 274 315 7,100 -550 Descending Chicago TRACON
Thu 10:59:58 PM 42.0667 -87.7167 90° East 237 273 6,100 -1,200 Descending Chicago TRACON
Thu 11:00:58 PM 42.0333 -87.6667 132° Southeast 231 266 4,700 -1,400 Descending Chicago TRACON

Login

Don't have an account? Register now (free) for customized features, flight alerts, and more!